BLR weather

Kempegowda International Airport
Bangalore, Karnataka, India

Public forecast

Using degrees Celsius for public forecast. Weather courtesy of forecast.io.

Current aviation weather report (METAR) for Kempegowda International Airport

Retrieved 2020/04/08 05:00 UTC (25 minutes ago):

VOBL 080500Z 27004KT 210V350 8000 SCT015 SCT080 27/19 Q1019 NOSIG

Aviation forecast (TAF) for Kempegowda International Airport

Retrieved 2020-04-08 00:00 UTC (5 hours ago):

TAF VOBL 072300Z 0800/0906 VRB02KT 6000 SCT012 TEMPO 0800/0803 13010KT 4000 DZ BR SCT010 BKN080 TEMPO 0809/0815 15010KT 4000 TSRA RA SCT012 FEW025CB BKN080 TEMPO 0900/0903 4000 BR SCT010